Anza Borrego Desert Research Center, California Weather observations

Data are for 10 minute period ending at time listed.
 Day   Time   Solar   Ave.   Ave.  Ave.  Vector  Max.   Baro.   Total    
  of    of     Rad.   Air    Rel.  Wind   Wind   Wind  Press.  Precip.   
Year   Day            Temp.  Hum.  Speed  Dir.   Gust                    
2016   (PST)  Kw/m2    F      %     mph   deg.    mph    mb.     in.     
-------------------------------------------------------------------------
 120   16:50   0.28   78.6    29    8.6   268    19.6   977.9    0.00 
 120   17:00   0.24   78.6    29    8.6   235    23.5   978.0    0.00 
 120   17:10   0.20   77.3    31   11.9   249    21.2   977.9    0.00 
 120   17:20   0.09   75.4    34   10.8   258    25.3   977.9    0.00 
 120   17:30   0.04   73.6    36   16.5   266    32.0   977.9    0.00 
 120   17:40   0.03   72.7    37   16.1   270    28.0   978.1    0.00 
 120   17:50   0.03   72.5    37   10.2   284    24.9   978.2    0.00 
 120   18:00   0.02   72.0    38   12.0   287    21.3   978.3    0.00 
 120   18:10   0.01   71.8    38   15.0   300    22.6   978.2    0.00 
 120   18:20   0.01   70.9    41   15.8   329    24.1   978.2    0.00 
 120   18:30   0.00   69.2    45   20.0   339    30.2   978.2    0.00 
 120   18:40   0.00   69.2    44   19.8   340    29.2   978.1    0.00 
 120   18:50   0.00   69.0    44   15.5   341    26.5   978.1    0.00 
 120   19:00   0.00   69.0    44   14.4   335    20.9   978.2    0.00 
 120   19:10   0.00   69.0    43   12.4   324    22.6   978.3    0.00 
 120   19:20   0.00   68.8    44    8.6   312    16.4   978.4    0.00 
 120   19:30   0.00   68.3    45    9.9   326    23.3   978.4    0.00 
 120   19:40   0.00   68.5    43    6.1   322    13.5   978.5    0.00 
 120   19:50   0.00   68.8    42    4.3   334     9.5   978.4    0.00 
 120   20:00   0.00   68.3    42    2.3   348     4.7   978.4    0.00 
 120   20:10   0.00   67.7    42    3.0   140     8.0   978.4    0.00 
 120   20:20   0.00   67.2    43    7.6   139    10.9   978.4    0.00 
 120   20:30   0.00   67.5    43    9.6   129    13.7   978.2    0.00 
 120   20:40   0.00   67.6    42    8.8   126    12.6   978.2    0.00 
 120   20:50   0.00   67.4    43    8.4   133    12.1   978.2    0.00 
 120   21:00   0.00   66.8    44   10.3   139    14.7   978.1    0.00 
 120   21:10   0.00   66.9    44    8.5   135    17.0   977.9    0.00 
 120   21:20   0.00   67.4    43   12.0   129    18.6   977.8    0.00 
 120   21:30   0.00   67.5    41   11.2   116    18.2   977.8    0.00 
 120   21:40   0.00   67.3    41    2.5    23     7.6   978.0    0.00 
 120   21:50   0.00   66.3    43    2.0   354     4.1   977.9    0.00 
 120   22:00   0.00   66.1    43    2.8   127     8.3   977.7    0.00 
 120   22:10   0.00   66.0    42    3.3   182     8.0   977.6    0.00 
 120   22:20   0.00   65.4    43    1.8   152     4.2   977.5    0.00 
 120   22:30   0.00   65.1    44    2.1   326     5.3   977.5    0.00 
 120   22:40   0.00   64.9    45    3.0    36     5.8   977.3    0.00 
 120   22:50   0.00   64.7    46    3.0    10     5.5   977.2    0.00 
 120   23:00   0.00   64.2    46    2.3   343     4.6   977.1    0.00 
 120   23:10   0.00   63.9    47    2.7   218     5.8   977.0    0.00 
 120   23:20   0.00   62.9    47    3.8   219     6.6   976.9    0.00 
 120   23:30   0.00   62.4    47    4.3   206     6.2   976.9    0.00 
 120   23:40   0.00   63.7    46    3.5   124     7.2   976.8    0.00 
 120   23:50   0.00   64.4    45    2.5    58     5.8   976.6    0.00 
 121    0:00   0.00   64.0    45    2.5   165     5.9   976.6    0.00 
 121    0:10   0.00   62.0    47    3.5   228     5.4   976.4    0.00 
 121    0:20   0.00   60.6    49    2.5   131     5.5   976.2    0.00 
 121    0:30   0.00   60.9    48    2.7    98     5.7   976.0    0.00 
 121    0:40   0.00   61.4    49    5.2   160     7.3   976.0    0.00 
 121    0:50   0.00   63.6    45    5.5   119    10.0   975.9    0.00 
 121    1:00   0.00   62.8    46    5.6   160     9.3   975.9    0.00 
 121    1:10   0.00   62.9    45    7.2   161    12.0   975.9    0.00 
 121    1:20   0.00   64.1    44    8.1   228    25.1   975.8    0.00 
 121    1:30   0.00   63.5    47    8.9   256    20.1   975.9    0.00 
 121    1:40   0.00   62.7    48   11.7   228    26.2   975.8    0.00 
 121    1:50   0.00   63.0    47    7.7   192    20.8   975.7    0.00 
 121    2:00   0.00   62.8    48    9.2   338    20.1   975.7    0.00 
 121    2:10   0.00   62.3    49   10.7   330    18.0   975.8    0.00 
 121    2:20   0.00   62.0    50    7.8   338    17.6   975.9    0.00 
 121    2:30   0.00   61.7    50    7.7   300    12.8   976.0    0.00 
 121    2:40   0.00   61.3    50    8.3   277    21.8   975.7    0.00 
 121    2:50   0.00   61.2    50    4.2    12    16.6   975.6    0.00 
 121    3:00   0.00   61.3    49    5.2   118     9.6   975.6    0.00 
 121    3:10   0.00   61.2    49    5.7   227    17.9   975.4    0.00 
 121    3:20   0.00   61.3    48    3.3    37     8.7   975.3    0.00 
 121    3:30   0.00   61.4    48    5.2   104    11.1   975.3    0.00 
 121    3:40   0.00   61.4    48    5.4    67    12.6   975.3    0.00 
 121    3:50   0.00   60.8    49    3.2   153     7.5   975.3    0.00 
 121    4:00   0.00   60.0    50    4.7   289    10.7   975.4    0.00 
 121    4:10   0.00   59.8    50    4.3     6    10.7   975.4    0.00 
 121    4:20   0.00   59.7    49    1.0    70     3.4   975.6    0.00 
 121    4:30   0.00   59.2    50    2.1   221     5.6   975.7    0.00 
 121    4:40   0.00   59.1    50    2.9   267     7.6   975.7    0.00 
 121    4:50   0.00   59.1    50    4.1   322     6.9   975.7    0.00 
 121    5:00   0.00   59.1    50    2.1     7     4.2   975.8    0.00 
 121    5:10   0.00   59.3    51    8.0   258    14.3   975.7    0.00 
 121    5:20   0.02   59.4    53   17.3   234    27.8   975.7    0.00 
 121    5:30   0.04   59.4    53   16.2   228    25.4   975.8    0.00 
 121    5:40   0.07   60.4    50   10.0   248    28.4   976.0    0.00 
 121    5:50   0.09   60.0    50   23.5   224    34.6   975.9    0.00 
 121    6:00   0.12   60.2    50   21.5   235    42.3   976.0    0.00 
 121    6:10   0.15   60.8    48   18.3   246    33.0   976.0    0.00 
 121    6:20   0.19   61.1    48   22.2   236    34.4   975.9    0.00 
 121    6:30   0.23   60.9    48   23.7   235    38.2   975.9    0.00 
 121    6:40   0.26   60.8    48   22.8   230    40.5   975.8    0.00 
 121    6:50   0.30   61.6    46   18.0   239    32.4   975.8    0.00 
 121    7:00   0.34   62.5    44   15.7   244    30.3   976.0    0.00 
 121    7:10   0.38   64.1    40    9.6   265    23.3   975.9    0.00 
 121    7:20   0.42   66.3    37    4.1   190    12.1   976.0    0.00 
 121    7:30   0.45   65.9    38    3.8   242    10.8   976.3    0.00 
 121    7:40   0.49   66.8    36    5.7   320    13.5   976.3    0.00 
 121    7:50   0.52   65.6    38    7.0   294    13.4   976.6    0.00 
 121    8:00   0.56   65.9    38    7.6   275    20.7   976.7    0.00 
 121    8:10   0.59   64.6    41   13.6   317    26.2   976.8    0.00 
 121    8:20   0.64   65.6    39   13.8   239    25.3   976.8    0.00 
 121    8:30   0.69   66.2    38   16.7   227    22.7   976.6    0.00 
 121    8:40   0.71   66.9    37   10.7   231    21.6   976.4    0.00 
 121    8:50   0.76   68.5    34    5.4   338    15.6   976.5    0.00 
 121    9:00   0.42   67.9    34   10.1   264    24.8   976.4    0.00 
 121    9:10   0.86   68.0    35   13.5   219    24.6   976.3    0.00 
 121    9:20   0.85   68.7    34    6.4   270    16.8   976.4    0.00 
 121    9:30   0.64   68.8    34   11.5   340    22.6   976.3    0.00 
 121    9:40   1.14   70.5    32   13.9   338    20.8   976.2    0.00 
 121    9:50   0.89   71.1    30   10.9   342    22.5   976.1    0.00 
 121   10:00   0.85   69.4    32   16.0   320    25.9   976.1    0.00 
 121   10:10   0.86   69.5    33   12.6   323    24.7   976.1    0.00 
 121   10:20   0.56   69.7    33   12.2   319    19.9   976.0    0.00 
 121   10:30   1.00   70.5    32   10.5   325    18.9   975.8    0.00 
 121   10:40   0.85   71.4    31   11.8   321    18.4   975.6    0.00 
 121   10:50   0.99   72.0    31   11.8   342    20.5   975.5    0.00 
 121   11:00   0.99   72.0    31   10.3   340    17.4   975.4    0.00 
 121   11:10   1.00   73.1    30    5.7   319    11.5   975.3    0.00 
 121   11:20   1.01   73.8    29    5.9    13    10.5   975.2    0.00 
 121   11:30   1.07   74.8    28    8.0   328    15.7   975.1    0.00 
 121   11:40   1.03   74.0    29   11.5   328    17.7   975.0    0.00 
 121   11:50   0.98   73.8    29   10.6   319    17.3   974.8    0.00 
 121   12:00   1.11   74.3    29   11.8   338    20.2   974.6    0.00 
 121   12:10   0.81   74.4    29   12.1   319    17.8   974.6    0.00 
 121   12:20   0.33   72.6    31   11.0   321    17.0   974.7    0.00 
 121   12:30   0.94   73.4    30    9.4   319    13.7   974.7    0.00 
 121   12:40   0.96   75.1    29    5.9   322    17.6   974.7    0.00 
 121   12:50   1.06   76.0    28    6.1   319    14.8   974.7    0.00 
 121   13:00   1.06   76.1    28    7.1   313    13.6   974.5    0.00 
 121   13:10   1.06   76.4    28   10.4   326    18.0   974.4    0.00 
 121   13:20   0.91   75.7    28   12.0   320    22.4   974.4    0.00 
 121   13:30   0.82   76.0    27    9.4   307    17.5   974.3    0.00 
 121   13:40   0.75   76.3    27   10.8   279    17.1   974.1    0.00 
 121   13:50   0.86   76.2    27   12.2   291    18.3   974.1    0.00 
 121   14:00   0.87   75.9    27   14.0   292    23.8   974.1    0.00 
 121   14:10   0.87   75.5    27   15.6   281    23.5   974.0    0.00 
 121   14:20   0.84   75.6    28   12.8   303    21.9   974.1    0.00 
 121   14:30   0.83   76.1    28   15.8   291    23.2   974.1    0.00 
 121   14:40   0.37   74.3    29   14.4   301    23.2   974.0    0.00 
 121   14:50   0.35   74.4    30   14.4   295    28.5   973.9    0.00 
 121   15:00   0.29   72.8    32   20.0   284    29.1   974.0    0.00 
 121   15:10   0.20   72.3    32   18.3   288    27.0   974.1    0.00 
 121   15:20   0.16   72.5    32   14.9   299    22.2   974.2    0.00 
 121   15:30   0.17   71.4    35   19.2   286    29.5   974.4    0.00 
 121   15:40   0.19   71.2    35   16.3   298    23.8   974.6    0.00 
 121   15:50   0.19   71.3    35   15.6   294    25.2   974.7    0.00 
 121   16:00   0.30   71.7    35   17.5   297    26.5   974.8    0.00 
 121   16:10   0.54   72.7    34   17.2   303    27.0   974.9    0.00 
 121   16:20   0.23   71.8    35   17.2   289    25.5   975.0    0.00 
 121   16:30   0.16   70.9    35   18.7   309    27.4   975.0    0.00 
 121   16:40   0.12   70.7    36   17.3   306    25.3   975.0    0.00 

Return to Anza Borrego Desert Research Center graphs page.


Western Regional Climate Center,wrcc@dri.edu